Weather observations for the past three days for
Nadi International Airport
Metric (Imperial)
Date Time (+12) Wind (kph) Vis. (km) Weather Sky Cond. Temperature (ºC) Relative Humidity Wind Chill (°C) Heat Index (°C) Pressure Precipitation (cm)
Air Dwpt 6 hour altimeter (cm) sea level (mb) 1 hr 3 hr 6 hr
Max. Min.
07 04:00 SE 9 0.00 A Few Clouds FEW030 21 17 78% 0 0.0
07 03:00 E 7 0.00 A Few Clouds FEW030 22 17 73% 0 0.0
07 02:00 E 9 0.00 A Few Clouds FEW030 22 18 78% 0 0.0
07 01:00 SE 7 0.00 A Few Clouds FEW030 22 18 78% 0 0.0
07 00:00 SE 9 0.00 A Few Clouds FEW030 22 18 78% 0 0.0
06 23:00 SE 15 0.00 Partly Cloudy FEW030 SCT050 23 18 74% 0 0.0
06 22:00 SE 13 0.00 Partly Cloudy FEW030 SCT050 24 18 69% 25 0 0.0
06 21:00 SE 11 0.00 Partly Cloudy FEW030 SCT050 24 18 69% 25 0 0.0
06 20:00 S 11 0.00 Mostly Cloudy SCT028 BKN048 24 19 74% 25 0 0.0
06 19:00 S 11 0.00 Mostly Cloudy SCT028 BKN048 25 19 69% 26 0 0.0
06 18:00 N 6 0.00 Mostly Cloudy SCT028 BKN048 26 20 70% 27 0 0.0
06 17:00 N 17 0.00 Mostly Cloudy SCT028 BKN048 26 20 70% 27 0 0.0
06 16:00 N 20 0.00 Partly Cloudy SCT028 SCT048 26 20 70% 27 0 0.0
06 15:00 NW 28 0.00 Partly Cloudy SCT028 28 20 62% 30 0 0.0
06 14:00 NW 30 0.00 Partly Cloudy SCT028 28 20 62% 30 0 0.0
06 13:00 NW 26 0.00 Partly Cloudy SCT028 27 20 66% 29 0 0.0
06 12:00 NW 20 0.00 Partly Cloudy SCT030 28 20 62% 30 0 0.0
06 11:00 S 15 0.00 Partly Cloudy SCT030 29 18 51% 30 0 0.0
06 10:00 E 17 0.00 A Few Clouds FEW030 28 19 58% 29 0 0.0
06 09:00 SE 19 0.00 A Few Clouds FEW030 27 18 58% 28 0 0.0
06 08:00 SE 19 0.00 A Few Clouds FEW030 25 18 65% 26 0 0.0
06 05:00 SE 15 0.00 A Few Clouds FEW030 22 18 78% 0 0.0
06 04:00 SE 13 0.00 A Few Clouds FEW030 23 18 74% 0 0.0
06 03:00 SE 13 0.00 A Few Clouds FEW030 23 18 74% 0 0.0
06 02:00 SE 11 0.00 A Few Clouds FEW030 23 18 74% 0 0.0
06 01:00 SE 11 0.00 A Few Clouds FEW030 23 18 74% 0 0.0
06 00:00 SE 11 0.00 A Few Clouds FEW030 23 18 74% 0 0.0
05 23:00 S 15 0.00 A Few Clouds FEW030 23 18 74% 0 0.0
05 22:00 S 11 0.00 A Few Clouds FEW030 24 18 69% 25 0 0.0
05 21:00 SE 19 0.00 A Few Clouds FEW030 24 18 69% 25 0 0.0
05 20:00 SE 11 0.00 Partly Cloudy SCT030 24 18 69% 25 0 0.0
05 19:00 S 11 0.00 A Few Clouds FEW030 24 19 74% 25 0 0.0
05 18:00 S 19 0.00 Partly Cloudy SCT028 SCT048 25 19 69% 26 0 0.0
05 17:00 S 20 0.00 Mostly Cloudy SCT028 BKN048 25 19 69% 26 0 0.0
05 16:00 SW 19 0.00 Mostly Cloudy SCT028 BKN048 27 20 66% 29 0 0.0
05 15:00 S 20 0.00 Partly Cloudy SCT028 30 21 59% 33 0 0.0
05 14:00 NW 20 0.00 Mostly Cloudy BKN028 29 21 62% 31 0 0.0
05 13:00 NW 17 0.00 Mostly Cloudy BKN028 29 20 58% 31 0 0.0
05 12:00 SE 9 0.00 Mostly Cloudy BKN028 29 20 58% 31 0 0.0
05 11:00 S 11 0.00 Mostly Cloudy SCT028 BKN048 28 20 62% 30 0 0.0
05 10:00 SE 9 0.00 Mostly Cloudy SCT028 BKN050 27 19 62% 28 0 0.0
05 09:00 SE 11 0.00 Mostly Cloudy FEW028 BKN050 26 20 70% 27 0 0.0
05 08:00 Vrbl 4 0.00 Partly Cloudy FEW028 SCT050 24 20 78% 24 0 0.0
05 07:00 Calm 0.00 A Few Clouds FEW030 21 19 88% 0 0.0
05 06:00 Calm 0.00 A Few Clouds FEW030 21 19 88% 0 0.0
05 05:00 Calm 0.00 A Few Clouds FEW030 21 20 94% 0 0.0
05 04:00 Calm 0.00 A Few Clouds FEW030 21 20 94% 0 0.0
05 03:00 Calm 0.00 A Few Clouds FEW030 22 20 88% 0 0.0
05 02:00 Calm 0.00 A Few Clouds FEW030 22 21 94% 0 0.0
05 01:00 SE 6 0.00 Partly Cloudy FEW030 SCT050 23 21 89% 0 0.0
05 00:00 SE 7 0.00 A Few Clouds FEW030 23 21 89% 0 0.0
04 23:00 SE 6 0.00 A Few Clouds FEW030 23 22 94% 0 0.0
04 22:00 Calm 0.00 A Few Clouds FEW030 24 21 83% 24 0 0.0
04 21:00 Calm 0.00 A Few Clouds FEW030 24 22 89% 24 0 0.0
04 20:00 W 9 0.00 A Few Clouds FEW030 24 22 89% 24 0 0.0
04 19:00 W 13 0.00 A Few Clouds FEW030 26 21 74% 27 0 0.0
04 18:00 W 11 0.00 A Few Clouds FEW030 28 20 62% 30 0 0.0
04 17:00 SW 17 0.00 A Few Clouds FEW030 29 21 62% 31 0 0.0
04 16:00 W 26 0.00 A Few Clouds FEW030 29 21 62% 31 0 0.0
04 15:00 W 28 0.00 A Few Clouds FEW028TCU 29 20 58% 31 0 0.0
04 14:00 W 26 0.00 Partly Cloudy SCT030 29 20 58% 31 0 0.0
04 13:00 W 28 0.00 Partly Cloudy SCT030 29 21 62% 31 0 0.0
04 12:00 NW 20 0.00 A Few Clouds FEW030 28 21 66% 30 0 0.0
04 11:00 W 19 0.00 Partly Cloudy FEW030 SCT120 28 21 66% 30 0 0.0
04 10:00 W 6 0.00 A Few Clouds FEW030 28 20 62% 30 0 0.0
04 09:00 SW 9 0.00 A Few Clouds FEW030 26 20 70% 27 0 0.0
04 08:00 Calm 0.00 A Few Clouds FEW030 24 20 78% 24 0 0.0
04 07:00 S 7 0.00 Partly Cloudy FEW030 SCT050 21 20 94% 0 0.0
04 06:00 S 7 0.00 Partly Cloudy FEW030 SCT050 22 19 83% 0 0.0
04 05:00 Calm 0.00 A Few Clouds FEW030 21 19 88% 0 0.0
Date Time (+12) Wind (kph) Vis. (km) Weather Sky Cond. Air Dwpt Max. Min. Relative Humidity Wind Chill (°C) Heat Index (°C) altimeter (cm) sea level (mb) 1 hr 3 hr 6 hr
6 hour
Temperature (ºC) Pressure Precipitation (cm)